Great Dunmow, United Kingdom
Current Conditions -  °F | °C
As of 4:20 AM on Thursday 27 Nov 2014 (Local Time) from EGSS Reporting Station
Moderate Fog Moderate Fog  
Wind Chill: 45°   Ceiling: 100
Heat Index: 48°   Visibility: 0.18mi
Dew Point: 48°   Wind: 7mph
Humidity: 100%   Direction: 140°SE
Pressure: 29.65"   Gusts: NA
Location:  51.87°N, 0.36°E
Report Text: EGSS 270420Z 14006KT 0300 R22/0550 FG OVC001 09/09 Q1004
Loading
Personal Weather Stations






























Interactive Weather Map New forecast layout! Learn more

10-Day Weather Forecast

Advertisements
Track Severe Weather on mobile